createdAt,value
2018-03-06T00:02:21.402Z,2.62
2018-03-06T00:04:48.034Z,2.10
2018-03-06T00:07:14.619Z,1.87
2018-03-06T00:09:41.867Z,1.48
2018-03-06T00:12:08.548Z,1.80
2018-03-06T00:14:35.545Z,1.50
2018-03-06T00:17:02.146Z,2.47
2018-03-06T00:19:28.719Z,1.52
2018-03-06T00:21:56.119Z,2.42
2018-03-06T00:24:22.739Z,2.15
2018-03-06T00:26:50.113Z,1.85
2018-03-06T00:29:16.684Z,2.58
2018-03-06T00:31:43.398Z,2.20
2018-03-06T00:34:10.034Z,2.80
2018-03-06T00:36:36.615Z,1.67
2018-03-06T00:39:03.216Z,1.67
2018-03-06T00:41:29.809Z,1.77
2018-03-06T00:43:56.991Z,1.92
2018-03-06T00:46:23.573Z,1.42
2018-03-06T00:48:50.151Z,1.77
2018-03-06T00:51:16.749Z,1.70
2018-03-06T00:53:43.334Z,1.95
2018-03-06T00:56:09.923Z,2.03
2018-03-06T00:58:37.129Z,2.33
2018-03-06T01:01:03.754Z,1.55
2018-03-06T01:03:30.326Z,1.58
2018-03-06T01:05:56.911Z,1.33
2018-03-06T01:08:23.557Z,2.15
2018-03-06T01:10:50.150Z,1.85
2018-03-06T01:13:16.762Z,1.52
2018-03-06T01:15:43.360Z,1.62
2018-03-06T01:18:10.514Z,1.42
2018-03-06T01:20:37.091Z,2.08
2018-03-06T01:23:04.530Z,2.25
2018-03-06T01:25:31.261Z,1.95
2018-03-06T01:27:57.880Z,1.37
2018-03-06T01:30:24.448Z,1.50
2018-03-06T01:32:51.035Z,2.12
2018-03-06T01:35:18.109Z,1.55
2018-03-06T01:37:44.698Z,2.17
2018-03-06T01:40:11.272Z,3.83
2018-03-06T01:42:38.229Z,1.48
2018-03-06T01:45:04.819Z,1.77
2018-03-06T01:47:31.409Z,1.98
2018-03-06T01:49:57.999Z,1.90
2018-03-06T01:52:24.656Z,1.10
2018-03-06T01:54:51.246Z,2.50
2018-03-06T01:57:18.442Z,1.98
2018-03-06T01:59:45.030Z,1.85
2018-03-06T02:02:11.605Z,1.95
2018-03-06T02:04:38.203Z,1.77
2018-03-06T02:07:04.827Z,1.95
2018-03-06T02:09:32.245Z,2.53
2018-03-06T02:11:58.834Z,1.73
2018-03-06T02:14:25.399Z,2.60
2018-03-06T02:16:51.977Z,1.70
2018-03-06T02:19:19.428Z,1.92
2018-03-06T02:21:46.018Z,3.40
2018-03-06T02:24:12.607Z,1.48
2018-03-06T02:26:39.184Z,2.00
2018-03-06T02:29:05.837Z,2.37
2018-03-06T02:31:32.430Z,1.77
2018-03-06T02:33:59.012Z,2.05
2018-03-06T02:36:25.640Z,2.55
2018-03-06T02:38:52.234Z,2.20
2018-03-06T02:41:19.744Z,2.85
2018-03-06T02:43:46.324Z,2.03
2018-03-06T02:46:12.909Z,2.75
2018-03-06T02:48:39.531Z,2.15
2018-03-06T02:51:06.129Z,1.37
2018-03-06T02:53:32.717Z,1.70
2018-03-06T02:55:59.313Z,2.08
2018-03-06T02:58:25.895Z,2.12
2018-03-06T03:00:52.487Z,1.55
2018-03-06T03:03:19.759Z,2.20
2018-03-06T03:05:46.349Z,3.28
2018-03-06T03:08:12.924Z,2.20
2018-03-06T03:10:39.594Z,2.33
2018-03-06T03:13:06.178Z,1.90
2018-03-06T03:15:32.765Z,2.33
2018-03-06T03:17:59.339Z,2.08
2018-03-06T03:20:25.923Z,2.47
2018-03-06T03:22:53.104Z,2.10
2018-03-06T03:25:19.689Z,1.92
2018-03-06T03:27:46.928Z,2.28
2018-03-06T03:30:13.518Z,2.10
2018-03-06T03:32:40.102Z,1.90
2018-03-06T03:35:06.690Z,2.40
2018-03-06T03:37:33.287Z,2.05
2018-03-06T03:40:01.540Z,2.35
2018-03-06T03:42:28.120Z,2.30
2018-03-06T03:44:55.419Z,3.30
2018-03-06T03:47:21.994Z,2.70
2018-03-06T03:49:48.620Z,2.17
2018-03-06T03:52:15.199Z,2.08
2018-03-06T03:54:41.796Z,1.87
2018-03-06T03:57:08.389Z,1.70
2018-03-06T03:59:35.668Z,1.58
2018-03-06T04:02:02.252Z,2.45
2018-03-06T04:04:28.841Z,2.40
2018-03-06T04:06:56.069Z,2.00
2018-03-06T04:09:22.671Z,2.92
2018-03-06T04:11:49.254Z,2.30
2018-03-06T04:14:16.345Z,1.77
2018-03-06T04:16:42.937Z,1.73
2018-03-06T04:19:09.525Z,2.30
2018-03-06T04:21:36.107Z,3.37
2018-03-06T04:24:03.705Z,2.28
2018-03-06T04:26:30.291Z,3.30
2018-03-06T04:28:56.884Z,3.10
2018-03-06T04:31:23.452Z,2.35
2018-03-06T04:33:50.137Z,1.75
2018-03-06T04:36:18.206Z,2.72
2018-03-06T04:38:44.849Z,3.55
2018-03-06T04:41:11.825Z,1.90
2018-03-06T04:43:38.397Z,2.15
2018-03-06T04:46:04.981Z,3.47
2018-03-06T04:48:31.560Z,2.70
2018-03-06T04:50:58.664Z,2.60
2018-03-06T04:53:25.736Z,1.87
2018-03-06T04:55:52.317Z,2.25
2018-03-06T04:58:19.610Z,2.10
2018-03-06T05:00:46.203Z,3.85
2018-03-06T05:03:13.780Z,1.80
2018-03-06T05:05:40.366Z,3.03
2018-03-06T05:08:06.958Z,2.30
2018-03-06T05:10:33.537Z,1.60
2018-03-06T05:13:00.229Z,1.87
2018-03-06T05:15:26.822Z,2.12
2018-03-06T05:17:53.481Z,1.65
2018-03-06T05:20:20.475Z,2.53
2018-03-06T05:22:47.055Z,2.30
2018-03-06T05:25:13.645Z,2.37
2018-03-06T05:27:40.233Z,2.15
2018-03-06T05:30:06.867Z,1.95
2018-03-06T05:32:33.467Z,1.75
2018-03-06T05:35:00.061Z,1.95
2018-03-06T05:37:27.652Z,1.83
2018-03-06T05:39:54.227Z,2.40
2018-03-06T05:42:21.854Z,2.70
2018-03-06T05:44:48.441Z,2.85
2018-03-06T05:47:15.036Z,2.15
2018-03-06T05:49:42.535Z,3.05
2018-03-06T05:52:09.170Z,2.85
2018-03-06T05:54:35.762Z,2.85
2018-03-06T05:57:02.954Z,3.17
2018-03-06T05:59:29.527Z,2.45
2018-03-06T06:01:56.423Z,2.65
2018-03-06T06:04:23.000Z,3.10
2018-03-06T06:06:49.594Z,3.17
2018-03-06T06:09:17.666Z,2.33
2018-03-06T06:11:44.244Z,2.20
2018-03-06T06:14:10.969Z,2.37
2018-03-06T06:16:37.640Z,2.35
2018-03-06T06:19:04.971Z,1.52
2018-03-06T06:21:32.723Z,2.40
2018-03-06T06:24:00.102Z,1.37
2018-03-06T06:26:27.324Z,2.28
2018-03-06T06:28:54.058Z,1.73
2018-03-06T06:31:20.650Z,1.95
2018-03-06T06:33:47.313Z,1.70
2018-03-06T06:36:13.926Z,1.60
2018-03-06T06:38:40.584Z,2.70
2018-03-06T06:41:07.672Z,2.28
2018-03-06T06:43:34.262Z,2.17
2018-03-06T06:46:00.895Z,3.47
2018-03-06T06:48:27.496Z,2.30
2018-03-06T06:50:54.463Z,1.95
2018-03-06T06:53:21.062Z,3.75
2018-03-06T06:55:48.069Z,3.05
2018-03-06T06:58:14.706Z,2.62
2018-03-06T07:00:41.312Z,1.55
2018-03-06T07:03:08.823Z,2.75
2018-03-06T07:05:35.457Z,2.60
2018-03-06T07:08:02.049Z,1.73
2018-03-06T07:10:28.631Z,2.60
2018-03-06T07:12:55.749Z,1.85
2018-03-06T07:15:22.343Z,2.97
2018-03-06T07:17:48.949Z,2.40
2018-03-06T07:20:15.589Z,2.03
2018-03-06T07:22:42.179Z,1.90
2018-03-06T07:25:08.778Z,1.77
2018-03-06T07:27:36.034Z,1.90
2018-03-06T07:30:03.332Z,1.55
2018-03-06T07:32:29.926Z,2.15
2018-03-06T07:34:57.020Z,2.72
2018-03-06T07:37:23.640Z,2.78
2018-03-06T07:39:50.224Z,2.20
2018-03-06T07:42:17.054Z,2.55
2018-03-06T07:44:43.642Z,1.60
2018-03-06T07:47:11.533Z,1.70
2018-03-06T07:49:38.156Z,1.67
2018-03-06T07:52:04.806Z,1.62
2018-03-06T07:54:31.388Z,2.12
2018-03-06T07:56:58.048Z,2.37
2018-03-06T07:59:24.635Z,2.97
2018-03-06T08:01:51.208Z,1.85
2018-03-06T08:04:17.788Z,2.10
2018-03-06T08:06:44.384Z,1.80
2018-03-06T08:09:10.977Z,1.50
2018-03-06T08:11:38.418Z,2.08
2018-03-06T08:14:05.035Z,1.67
2018-03-06T08:16:31.626Z,1.80
2018-03-06T08:18:58.312Z,1.87
2018-03-06T08:21:24.957Z,1.23
2018-03-06T08:23:51.594Z,2.50
2018-03-06T08:26:18.186Z,1.62
2018-03-06T08:28:44.767Z,2.33
2018-03-06T08:31:11.979Z,2.12
2018-03-06T08:33:38.654Z,2.83
2018-03-06T08:36:05.223Z,2.20
2018-03-06T08:38:31.808Z,1.90
2018-03-06T08:40:59.002Z,1.83
2018-03-06T08:43:25.626Z,2.67
2018-03-06T08:45:52.199Z,2.12
2018-03-06T08:48:18.863Z,1.90
2018-03-06T08:50:46.042Z,2.62
2018-03-06T08:53:12.665Z,1.73
2018-03-06T08:55:40.010Z,2.00
2018-03-06T08:58:06.645Z,3.80
2018-03-06T09:00:33.224Z,2.80
2018-03-06T09:02:59.869Z,1.83
2018-03-06T09:05:27.335Z,2.40
2018-03-06T09:07:53.944Z,2.35
2018-03-06T09:10:20.528Z,2.03
2018-03-06T09:12:47.124Z,3.25
2018-03-06T09:15:13.710Z,3.10
2018-03-06T09:17:40.904Z,1.87
2018-03-06T09:20:09.414Z,2.05
2018-03-06T09:22:35.996Z,2.50
2018-03-06T09:25:02.587Z,2.58
2018-03-06T09:27:29.675Z,2.53
2018-03-06T09:29:56.279Z,3.28
2018-03-06T09:32:26.450Z,2.35
2018-03-06T09:34:53.040Z,2.45
2018-03-06T09:37:19.615Z,2.40
2018-03-06T09:39:46.200Z,2.00
2018-03-06T09:42:13.218Z,2.33
2018-03-06T09:44:39.795Z,1.70
2018-03-06T09:47:06.384Z,2.05
2018-03-06T09:49:32.949Z,2.35
2018-03-06T09:51:59.570Z,2.03
2018-03-06T09:54:26.186Z,1.48
2018-03-06T09:56:52.774Z,2.85
2018-03-06T09:59:19.350Z,2.62
2018-03-06T10:01:45.942Z,2.12
2018-03-06T10:04:12.605Z,2.42
2018-03-06T10:06:39.179Z,1.67
2018-03-06T10:09:05.859Z,2.55
2018-03-06T10:11:32.439Z,3.08
2018-03-06T10:13:59.035Z,1.95
2018-03-06T10:16:25.621Z,2.65
2018-03-06T10:18:52.203Z,1.55
2018-03-06T10:21:18.783Z,1.70
2018-03-06T10:23:45.377Z,2.03
2018-03-06T10:26:12.026Z,1.75
2018-03-06T10:28:38.615Z,3.15
2018-03-06T10:31:05.191Z,1.27
2018-03-06T10:33:31.825Z,1.85
2018-03-06T10:35:58.413Z,2.53
2018-03-06T10:38:25.515Z,1.85
2018-03-06T10:40:52.123Z,3.10
2018-03-06T10:43:18.798Z,1.75
2018-03-06T10:45:45.431Z,2.35
2018-03-06T10:48:12.021Z,2.67
2018-03-06T10:50:38.613Z,2.58
2018-03-06T10:53:05.263Z,1.08
2018-03-06T10:55:31.951Z,2.25
2018-03-06T10:57:58.605Z,1.40
2018-03-06T11:00:31.043Z,1.67
2018-03-06T11:02:57.638Z,2.53
2018-03-06T11:05:25.165Z,2.30
2018-03-06T11:07:51.758Z,2.03
2018-03-06T11:10:18.335Z,2.45
2018-03-06T11:12:44.920Z,2.20
2018-03-06T11:15:11.934Z,1.52
2018-03-06T11:17:38.936Z,1.90
2018-03-06T11:20:05.640Z,2.53
2018-03-06T11:22:32.222Z,1.85
2018-03-06T11:24:58.791Z,1.90
2018-03-06T11:27:26.332Z,1.60
2018-03-06T11:29:52.914Z,1.83
2018-03-06T11:32:19.496Z,1.73
2018-03-06T11:34:46.783Z,2.03
2018-03-06T11:37:13.381Z,2.90
2018-03-06T11:39:39.971Z,2.12
2018-03-06T11:42:06.592Z,2.28
2018-03-06T11:44:33.165Z,1.75
2018-03-06T11:46:59.828Z,2.45
2018-03-06T11:49:26.411Z,1.85
2018-03-06T11:51:53.024Z,1.85
2018-03-06T11:54:19.628Z,2.03
2018-03-06T11:56:46.207Z,2.50
2018-03-06T11:59:12.807Z,2.47
2018-03-06T12:01:39.387Z,1.55
2018-03-06T12:04:07.622Z,2.62
2018-03-06T12:06:34.211Z,1.95
2018-03-06T12:09:00.801Z,2.22
2018-03-06T12:11:28.302Z,1.40
2018-03-06T12:13:54.895Z,2.08
2018-03-06T12:16:21.499Z,1.95
2018-03-06T12:18:48.078Z,1.42
2018-03-06T12:21:14.676Z,2.30
2018-03-06T12:23:41.266Z,1.92
2018-03-06T12:26:07.882Z,1.30
2018-03-06T12:28:34.488Z,2.50
2018-03-06T12:31:01.076Z,1.75
2018-03-06T12:33:27.669Z,2.60
2018-03-06T12:35:54.278Z,1.98
2018-03-06T12:38:20.855Z,2.40
2018-03-06T12:40:47.595Z,1.77
2018-03-06T12:43:14.159Z,1.73
2018-03-06T12:45:40.740Z,1.52
2018-03-06T12:48:08.105Z,1.87
2018-03-06T12:50:34.714Z,1.85
2018-03-06T12:53:01.364Z,2.12
2018-03-06T12:55:28.004Z,2.00
2018-03-06T12:57:54.596Z,1.92
2018-03-06T13:00:21.185Z,2.62
2018-03-06T13:02:48.433Z,2.33
2018-03-06T13:05:15.009Z,2.45
2018-03-06T13:07:41.583Z,2.42
2018-03-06T13:10:08.910Z,2.20
2018-03-06T13:12:36.746Z,2.67
2018-03-06T13:15:03.318Z,2.03
2018-03-06T13:17:29.895Z,2.28
2018-03-06T13:19:56.477Z,2.45
2018-03-06T13:22:23.060Z,1.85
2018-03-06T13:24:49.644Z,2.40
2018-03-06T13:27:16.570Z,1.35
2018-03-06T13:29:43.167Z,1.65
2018-03-06T13:32:09.762Z,2.12
2018-03-06T13:34:36.451Z,1.60
2018-03-06T13:37:03.094Z,2.05
2018-03-06T13:39:30.580Z,1.92
2018-03-06T13:41:57.156Z,1.80
2018-03-06T13:44:23.808Z,2.33
2018-03-06T13:46:50.392Z,2.20
2018-03-06T13:49:16.968Z,1.95
2018-03-06T13:51:43.562Z,2.25
2018-03-06T13:54:10.150Z,1.75
2018-03-06T13:56:36.744Z,3.67
2018-03-06T13:59:03.429Z,1.90
2018-03-06T14:01:30.005Z,1.40
2018-03-06T14:03:57.415Z,1.58
2018-03-06T14:06:23.996Z,2.30
2018-03-06T14:08:50.594Z,2.12
2018-03-06T14:11:17.224Z,2.20
2018-03-06T14:13:44.724Z,2.60
2018-03-06T14:16:11.314Z,2.00
2018-03-06T14:18:38.409Z,1.55
2018-03-06T14:21:05.870Z,2.03
2018-03-06T14:23:32.575Z,1.80
2018-03-06T14:25:59.154Z,1.55
2018-03-06T14:28:25.734Z,2.30
2018-03-06T14:30:52.374Z,2.75
2018-03-06T14:33:19.555Z,2.03
2018-03-06T14:35:46.145Z,1.92
2018-03-06T14:38:13.469Z,2.67
2018-03-06T14:40:40.157Z,2.08
2018-03-06T14:43:06.762Z,2.50
2018-03-06T14:45:33.407Z,4.25
2018-03-06T14:48:00.058Z,2.05
2018-03-06T14:50:26.655Z,2.30
2018-03-06T14:52:53.307Z,2.42
2018-03-06T14:55:19.970Z,2.00
2018-03-06T14:57:46.543Z,1.90
2018-03-06T15:00:13.138Z,1.92
2018-03-06T15:02:40.341Z,1.85
2018-03-06T15:05:07.015Z,2.47
2018-03-06T15:07:33.651Z,1.90
2018-03-06T15:10:00.246Z,1.62
2018-03-06T15:12:26.838Z,2.30
2018-03-06T15:14:53.437Z,2.17
2018-03-06T15:17:20.106Z,2.53
2018-03-06T15:19:46.710Z,5.90
2018-03-06T15:22:13.274Z,2.90
2018-03-06T15:24:39.851Z,3.80
2018-03-06T15:27:06.478Z,2.90
2018-03-06T15:29:33.869Z,3.97
2018-03-06T15:32:00.472Z,3.78
2018-03-06T15:34:28.004Z,3.30
2018-03-06T15:36:54.577Z,2.70
2018-03-06T15:39:21.359Z,2.47
2018-03-06T15:41:49.006Z,4.00
2018-03-06T15:44:15.673Z,3.53
2018-03-06T15:46:42.302Z,3.20
2018-03-06T15:49:09.004Z,3.58
2018-03-06T15:51:35.657Z,2.42
2018-03-06T15:54:02.470Z,2.85
2018-03-06T15:56:29.101Z,2.53
2018-03-06T15:58:56.612Z,3.30
2018-03-06T16:01:23.252Z,1.48
2018-03-06T16:03:50.043Z,3.53
2018-03-06T16:06:17.520Z,3.45
2018-03-06T16:08:44.821Z,4.53
2018-03-06T16:11:11.617Z,2.70
2018-03-06T16:13:38.338Z,2.33
2018-03-06T16:16:04.966Z,1.80
2018-03-06T16:18:31.594Z,2.70
2018-03-06T16:20:59.061Z,2.75
2018-03-06T16:23:25.814Z,2.47
2018-03-06T16:25:52.938Z,3.40
2018-03-06T16:28:19.575Z,16.80
2018-03-06T16:30:46.209Z,7.95
2018-03-06T16:33:12.917Z,14.38
2018-03-06T16:35:39.653Z,10.55
2018-03-06T16:38:06.311Z,10.45
2018-03-06T16:40:32.969Z,7.25
2018-03-06T16:42:59.623Z,6.62
2018-03-06T16:45:26.325Z,7.10
2018-03-06T16:47:52.958Z,7.40
2018-03-06T16:50:19.606Z,8.18
2018-03-06T16:52:46.280Z,5.45
2018-03-06T16:55:12.930Z,8.05
2018-03-06T16:57:39.581Z,7.15
2018-03-06T17:00:06.219Z,10.38
2018-03-06T17:02:32.899Z,7.90
2018-03-06T17:04:59.543Z,6.37
2018-03-06T17:07:28.028Z,4.62
2018-03-06T17:09:54.733Z,5.72
2018-03-06T17:12:21.380Z,4.85
2018-03-06T17:14:48.068Z,4.45
2018-03-06T17:17:14.716Z,5.93
2018-03-06T17:19:41.358Z,4.05
2018-03-06T17:22:08.003Z,4.55
2018-03-06T17:24:34.682Z,3.87
2018-03-06T17:27:01.345Z,5.53
2018-03-06T17:29:28.001Z,5.00
2018-03-06T17:31:55.669Z,3.05
2018-03-06T17:34:22.306Z,4.47
2018-03-06T17:36:48.937Z,3.72
2018-03-06T17:39:15.629Z,4.75
2018-03-06T17:41:42.383Z,3.75
2018-03-06T17:44:09.108Z,3.62
2018-03-06T17:46:35.967Z,4.40
2018-03-06T17:49:03.015Z,2.85
2018-03-06T17:51:29.664Z,3.53
2018-03-06T17:53:57.058Z,3.53
2018-03-06T17:56:23.723Z,4.60
2018-03-06T17:58:50.384Z,4.18
2018-03-06T18:01:17.016Z,3.67
2018-03-06T18:03:44.395Z,4.18
2018-03-06T18:06:11.080Z,3.47
2018-03-06T18:08:38.553Z,3.45
2018-03-06T18:11:05.311Z,3.42
2018-03-06T18:13:32.003Z,3.72
2018-03-06T18:15:58.674Z,4.75
2018-03-06T18:18:25.317Z,3.10
2018-03-06T18:20:52.038Z,5.03
2018-03-06T18:23:18.664Z,3.97
2018-03-06T18:25:46.039Z,3.15
2018-03-06T18:28:12.679Z,2.75
2018-03-06T18:30:39.312Z,3.62
2018-03-06T18:33:05.951Z,3.05
2018-03-06T18:35:32.731Z,4.07
2018-03-06T18:37:59.424Z,2.50
2018-03-06T18:40:26.169Z,4.32
2018-03-06T18:42:52.878Z,3.25
2018-03-06T18:45:19.528Z,2.60
2018-03-06T18:47:46.163Z,3.83
2018-03-06T18:50:18.662Z,2.75
2018-03-06T18:52:45.301Z,2.35
2018-03-06T18:55:11.928Z,3.40
2018-03-06T18:57:38.568Z,2.05
2018-03-06T19:00:21.011Z,3.17
2018-03-06T19:02:53.490Z,2.65
2018-03-06T19:05:25.980Z,4.37
2018-03-06T19:07:52.634Z,3.05
2018-03-06T19:10:19.264Z,3.28
2018-03-06T19:12:45.925Z,2.15
2018-03-06T19:15:13.203Z,3.42
2018-03-06T19:17:39.841Z,3.42
2018-03-06T19:20:06.499Z,3.20
2018-03-06T19:22:33.148Z,2.97
2018-03-06T19:24:59.856Z,2.45
2018-03-06T19:27:26.477Z,3.08
2018-03-06T19:29:53.124Z,1.83
2018-03-06T19:32:19.769Z,3.08
2018-03-06T19:34:46.370Z,2.65
2018-03-06T19:37:12.965Z,3.35
2018-03-06T19:39:39.567Z,2.10
2018-03-06T19:42:06.206Z,2.40
2018-03-06T19:44:33.336Z,2.62
2018-03-06T19:46:59.923Z,2.47
2018-03-06T19:49:26.502Z,2.95
2018-03-06T19:51:53.080Z,2.17
2018-03-06T19:54:19.687Z,2.22
2018-03-06T19:56:47.060Z,2.05
2018-03-06T19:59:14.150Z,2.20
2018-03-06T20:01:40.758Z,2.53
2018-03-06T20:04:07.356Z,1.75
2018-03-06T20:06:33.951Z,1.40
2018-03-06T20:09:00.551Z,2.97
2018-03-06T20:11:27.162Z,1.92
2018-03-06T20:13:53.756Z,2.00
2018-03-06T20:16:20.955Z,2.58
2018-03-06T20:18:47.563Z,1.60
2018-03-06T20:21:14.250Z,2.05
2018-03-06T20:23:40.871Z,2.70
2018-03-06T20:26:07.444Z,1.90
2018-03-06T20:28:34.829Z,1.60
2018-03-06T20:31:07.148Z,1.83
2018-03-06T20:33:33.711Z,1.95
2018-03-06T20:36:00.288Z,2.37
2018-03-06T20:38:32.501Z,1.58
2018-03-06T20:40:59.077Z,1.87
2018-03-06T20:43:26.048Z,2.30
2018-03-06T20:45:58.397Z,2.35
2018-03-06T20:48:24.994Z,2.58
2018-03-06T20:50:51.580Z,1.77
2018-03-06T20:53:26.080Z,2.30
2018-03-06T20:55:52.739Z,1.70
2018-03-06T20:58:19.320Z,1.80
2018-03-06T21:00:45.910Z,2.10
2018-03-06T21:03:12.562Z,2.85
2018-03-06T21:05:39.653Z,2.05
2018-03-06T21:08:08.095Z,1.62
2018-03-06T21:10:34.708Z,1.87
2018-03-06T21:13:01.330Z,1.98
2018-03-06T21:15:28.726Z,1.73
2018-03-06T21:17:55.300Z,2.37
2018-03-06T21:20:21.981Z,1.87
2018-03-06T21:22:48.608Z,2.25
2018-03-06T21:25:15.202Z,1.92
2018-03-06T21:27:41.811Z,2.20
2018-03-06T21:30:08.440Z,1.52
2018-03-06T21:32:35.408Z,1.40
2018-03-06T21:35:02.000Z,2.00
2018-03-06T21:37:28.636Z,1.85
2018-03-06T21:39:55.233Z,2.42
2018-03-06T21:42:21.920Z,2.85
2018-03-06T21:44:48.497Z,2.00
2018-03-06T21:47:15.563Z,1.83
2018-03-06T21:49:42.142Z,2.12
2018-03-06T21:52:08.742Z,1.55
2018-03-06T21:54:36.242Z,2.17
2018-03-06T21:57:02.805Z,2.15
2018-03-06T21:59:29.386Z,1.65
2018-03-06T22:01:56.738Z,1.30
2018-03-06T22:04:23.311Z,1.23
2018-03-06T22:06:49.904Z,1.35
2018-03-06T22:09:16.484Z,1.25
2018-03-06T22:11:43.074Z,1.55
2018-03-06T22:14:09.715Z,1.80
2018-03-06T22:16:36.296Z,3.53
2018-03-06T22:19:02.973Z,1.35
2018-03-06T22:21:29.555Z,1.55
2018-03-06T22:23:56.616Z,1.30
2018-03-06T22:26:23.182Z,2.87
2018-03-06T22:28:49.756Z,1.98
2018-03-06T22:31:16.332Z,1.75
2018-03-06T22:33:43.470Z,2.67
2018-03-06T22:36:10.080Z,2.22
2018-03-06T22:38:36.661Z,1.40
2018-03-06T22:41:03.254Z,2.05
2018-03-06T22:43:29.877Z,2.22
2018-03-06T22:45:57.331Z,2.62
2018-03-06T22:48:23.912Z,1.90
2018-03-06T22:50:50.519Z,1.87
2018-03-06T22:53:17.165Z,2.25
2018-03-06T22:55:43.755Z,2.33
2018-03-06T22:58:10.360Z,1.90
2018-03-06T23:00:36.974Z,2.45
2018-03-06T23:03:04.449Z,3.12
2018-03-06T23:05:31.127Z,1.37
2018-03-06T23:07:57.708Z,1.45
2018-03-06T23:10:24.414Z,2.65
2018-03-06T23:12:50.988Z,1.87
2018-03-06T23:15:17.586Z,2.10
2018-03-06T23:17:44.212Z,2.35
2018-03-06T23:20:10.803Z,2.20
2018-03-06T23:22:38.114Z,1.35
2018-03-06T23:25:04.703Z,2.30
2018-03-06T23:27:32.118Z,1.40
2018-03-06T23:29:58.721Z,1.48
2018-03-06T23:32:25.369Z,1.80
2018-03-06T23:34:51.962Z,1.98
2018-03-06T23:37:19.062Z,1.62
2018-03-06T23:39:45.661Z,2.72
2018-03-06T23:42:12.336Z,1.65
2018-03-06T23:44:38.937Z,1.37
2018-03-06T23:47:05.538Z,1.90
2018-03-06T23:49:32.144Z,2.00
2018-03-06T23:51:58.754Z,2.70
2018-03-06T23:54:25.336Z,2.20
2018-03-06T23:56:51.950Z,1.33
2018-03-06T23:59:19.155Z,2.42
